sensor_id;sensor_type;location;lat;lon;timestamp;temperature;humidity
49711;DHT22;35602;44.534;18.696;2023-04-24T00:02:34;21.70;52.30
49711;DHT22;35602;44.534;18.696;2023-04-24T00:07:34;21.70;52.30
49711;DHT22;35602;44.534;18.696;2023-04-24T00:12:36;21.60;52.30
49711;DHT22;35602;44.534;18.696;2023-04-24T00:17:37;21.70;52.30
49711;DHT22;35602;44.534;18.696;2023-04-24T00:22:37;21.70;52.40
49711;DHT22;35602;44.534;18.696;2023-04-24T00:27:38;21.70;52.50
49711;DHT22;35602;44.534;18.696;2023-04-24T00:32:39;21.70;52.40
49711;DHT22;35602;44.534;18.696;2023-04-24T00:37:39;21.70;52.40
49711;DHT22;35602;44.534;18.696;2023-04-24T00:42:40;21.70;52.40
49711;DHT22;35602;44.534;18.696;2023-04-24T00:47:41;21.70;52.40
49711;DHT22;35602;44.534;18.696;2023-04-24T00:52:42;21.70;52.50
49711;DHT22;35602;44.534;18.696;2023-04-24T00:57:43;21.70;52.50
49711;DHT22;35602;44.534;18.696;2023-04-24T01:02:45;21.70;52.50
49711;DHT22;35602;44.534;18.696;2023-04-24T01:07:46;21.60;52.40
49711;DHT22;35602;44.534;18.696;2023-04-24T01:12:49;21.70;52.50
49711;DHT22;35602;44.534;18.696;2023-04-24T01:17:50;21.70;52.50
49711;DHT22;35602;44.534;18.696;2023-04-24T01:22:51;21.70;52.50
49711;DHT22;35602;44.534;18.696;2023-04-24T01:27:52;21.70;52.50
49711;DHT22;35602;44.534;18.696;2023-04-24T01:32:53;21.70;52.60
49711;DHT22;35602;44.534;18.696;2023-04-24T01:37:54;21.70;52.50
49711;DHT22;35602;44.534;18.696;2023-04-24T01:42:54;21.70;52.60
49711;DHT22;35602;44.534;18.696;2023-04-24T01:47:55;21.70;52.50
49711;DHT22;35602;44.534;18.696;2023-04-24T01:52:56;21.70;52.50
49711;DHT22;35602;44.534;18.696;2023-04-24T01:57:57;21.60;52.50
49711;DHT22;35602;44.534;18.696;2023-04-24T02:03:00;21.70;52.60
49711;DHT22;35602;44.534;18.696;2023-04-24T02:08:02;21.70;52.60
49711;DHT22;35602;44.534;18.696;2023-04-24T02:13:02;21.70;52.60
49711;DHT22;35602;44.534;18.696;2023-04-24T02:18:03;21.70;52.60
49711;DHT22;35602;44.534;18.696;2023-04-24T02:23:04;21.70;52.50
49711;DHT22;35602;44.534;18.696;2023-04-24T02:28:04;21.60;52.60
49711;DHT22;35602;44.534;18.696;2023-04-24T02:33:05;21.70;52.60
49711;DHT22;35602;44.534;18.696;2023-04-24T02:38:05;21.70;52.60
49711;DHT22;35602;44.534;18.696;2023-04-24T02:43:09;21.70;52.60
49711;DHT22;35602;44.534;18.696;2023-04-24T02:48:09;21.70;52.60
49711;DHT22;35602;44.534;18.696;2023-04-24T02:53:10;21.70;52.70
49711;DHT22;35602;44.534;18.696;2023-04-24T02:58:11;21.70;52.60
49711;DHT22;35602;44.534;18.696;2023-04-24T03:03:13;21.70;52.70
49711;DHT22;35602;44.534;18.696;2023-04-24T03:08:14;21.70;52.70
49711;DHT22;35602;44.534;18.696;2023-04-24T03:13:15;21.70;52.70
49711;DHT22;35602;44.534;18.696;2023-04-24T03:18:16;21.70;52.70
49711;DHT22;35602;44.534;18.696;2023-04-24T03:23:17;21.70;52.70
49711;DHT22;35602;44.534;18.696;2023-04-24T03:28:17;21.70;52.70
49711;DHT22;35602;44.534;18.696;2023-04-24T03:33:18;21.70;52.70
49711;DHT22;35602;44.534;18.696;2023-04-24T03:38:18;21.60;52.70
49711;DHT22;35602;44.534;18.696;2023-04-24T03:43:19;21.70;52.70
49711;DHT22;35602;44.534;18.696;2023-04-24T03:48:22;21.70;52.80
49711;DHT22;35602;44.534;18.696;2023-04-24T03:53:23;21.70;52.90
49711;DHT22;35602;44.534;18.696;2023-04-24T03:58:24;21.70;53.00
49711;DHT22;35602;44.534;18.696;2023-04-24T04:03:24;21.60;52.90
49711;DHT22;35602;44.534;18.696;2023-04-24T04:08:25;21.70;53.00
49711;DHT22;35602;44.534;18.696;2023-04-24T04:13:26;21.60;53.00
49711;DHT22;35602;44.534;18.696;2023-04-24T04:18:27;21.70;53.10
49711;DHT22;35602;44.534;18.696;2023-04-24T04:23:27;21.60;53.10
49711;DHT22;35602;44.534;18.696;2023-04-24T04:28:28;21.60;53.10
49711;DHT22;35602;44.534;18.696;2023-04-24T04:33:32;21.60;53.20
49711;DHT22;35602;44.534;18.696;2023-04-24T04:38:32;21.70;53.20
49711;DHT22;35602;44.534;18.696;2023-04-24T04:43:33;21.60;53.20
49711;DHT22;35602;44.534;18.696;2023-04-24T04:48:35;21.60;53.10
49711;DHT22;35602;44.534;18.696;2023-04-24T04:53:35;21.60;53.10
49711;DHT22;35602;44.534;18.696;2023-04-24T04:58:36;21.60;53.40
49711;DHT22;35602;44.534;18.696;2023-04-24T05:03:36;21.70;53.20
49711;DHT22;35602;44.534;18.696;2023-04-24T05:08:37;21.60;53.20
49711;DHT22;35602;44.534;18.696;2023-04-24T05:13:38;21.60;53.20
49711;DHT22;35602;44.534;18.696;2023-04-24T05:18:38;21.60;53.10
49711;DHT22;35602;44.534;18.696;2023-04-24T05:23:39;21.60;53.20
49711;DHT22;35602;44.534;18.696;2023-04-24T05:28:40;21.70;53.20
49711;DHT22;35602;44.534;18.696;2023-04-24T05:33:41;21.70;53.20
49711;DHT22;35602;44.534;18.696;2023-04-24T05:38:42;21.70;53.20
49711;DHT22;35602;44.534;18.696;2023-04-24T05:43:42;21.60;53.10
49711;DHT22;35602;44.534;18.696;2023-04-24T05:48:44;21.60;53.10
49711;DHT22;35602;44.534;18.696;2023-04-24T05:53:45;21.70;53.10
49711;DHT22;35602;44.534;18.696;2023-04-24T05:58:46;21.70;53.10
49711;DHT22;35602;44.534;18.696;2023-04-24T06:03:47;21.60;53.10
49711;DHT22;35602;44.534;18.696;2023-04-24T06:08:47;21.60;53.10
49711;DHT22;35602;44.534;18.696;2023-04-24T06:13:48;21.60;53.00
49711;DHT22;35602;44.534;18.696;2023-04-24T06:18:49;21.60;53.00
49711;DHT22;35602;44.534;18.696;2023-04-24T06:23:50;21.60;53.00
49711;DHT22;35602;44.534;18.696;2023-04-24T06:28:51;21.70;53.10
49711;DHT22;35602;44.534;18.696;2023-04-24T06:33:54;21.60;53.00
49711;DHT22;35602;44.534;18.696;2023-04-24T06:38:54;21.70;53.10
49711;DHT22;35602;44.534;18.696;2023-04-24T06:43:55;21.60;53.00
49711;DHT22;35602;44.534;18.696;2023-04-24T06:48:56;21.70;53.10
49711;DHT22;35602;44.534;18.696;2023-04-24T06:53:56;21.70;53.10
49711;DHT22;35602;44.534;18.696;2023-04-24T06:58:58;21.70;53.30
49711;DHT22;35602;44.534;18.696;2023-04-24T07:03:59;21.70;53.70
49711;DHT22;35602;44.534;18.696;2023-04-24T07:08:59;21.80;55.00
49711;DHT22;35602;44.534;18.696;2023-04-24T07:14:01;21.80;55.10
49711;DHT22;35602;44.534;18.696;2023-04-24T07:19:02;21.80;55.00
49711;DHT22;35602;44.534;18.696;2023-04-24T07:24:03;21.90;55.00
49711;DHT22;35602;44.534;18.696;2023-04-24T07:29:04;21.90;55.20
49711;DHT22;35602;44.534;18.696;2023-04-24T07:34:04;21.90;55.20
49711;DHT22;35602;44.534;18.696;2023-04-24T07:39:05;22.00;55.40
49711;DHT22;35602;44.534;18.696;2023-04-24T07:44:06;22.00;55.40
49711;DHT22;35602;44.534;18.696;2023-04-24T07:49:07;22.00;55.40
49711;DHT22;35602;44.534;18.696;2023-04-24T07:54:07;22.00;55.60
49711;DHT22;35602;44.534;18.696;2023-04-24T07:59:11;22.00;55.70
49711;DHT22;35602;44.534;18.696;2023-04-24T08:04:12;22.10;55.80
49711;DHT22;35602;44.534;18.696;2023-04-24T08:09:12;22.10;55.80
49711;DHT22;35602;44.534;18.696;2023-04-24T08:14:13;22.10;55.90
49711;DHT22;35602;44.534;18.696;2023-04-24T08:19:15;22.10;56.00
49711;DHT22;35602;44.534;18.696;2023-04-24T08:24:15;22.10;56.00
49711;DHT22;35602;44.534;18.696;2023-04-24T08:29:16;22.20;56.20
49711;DHT22;35602;44.534;18.696;2023-04-24T08:34:17;22.20;56.70
49711;DHT22;35602;44.534;18.696;2023-04-24T08:39:17;22.20;56.10
49711;DHT22;35602;44.534;18.696;2023-04-24T08:44:18;22.10;55.10
49711;DHT22;35602;44.534;18.696;2023-04-24T08:49:19;22.10;55.80
49711;DHT22;35602;44.534;18.696;2023-04-24T08:54:20;22.10;56.40
49711;DHT22;35602;44.534;18.696;2023-04-24T08:59:21;22.10;56.40
49711;DHT22;35602;44.534;18.696;2023-04-24T09:04:25;22.10;56.70
49711;DHT22;35602;44.534;18.696;2023-04-24T09:09:26;22.10;56.70
49711;DHT22;35602;44.534;18.696;2023-04-24T09:14:30;22.20;56.80
49711;DHT22;35602;44.534;18.696;2023-04-24T09:19:32;22.10;57.00
49711;DHT22;35602;44.534;18.696;2023-04-24T09:24:33;22.20;56.90
49711;DHT22;35602;44.534;18.696;2023-04-24T09:29:34;22.20;57.00
49711;DHT22;35602;44.534;18.696;2023-04-24T09:34:35;22.20;57.20
49711;DHT22;35602;44.534;18.696;2023-04-24T09:39:35;22.20;57.20
49711;DHT22;35602;44.534;18.696;2023-04-24T09:44:36;22.20;57.30
49711;DHT22;35602;44.534;18.696;2023-04-24T09:49:37;22.20;57.20
49711;DHT22;35602;44.534;18.696;2023-04-24T09:54:39;22.20;57.10
49711;DHT22;35602;44.534;18.696;2023-04-24T09:59:45;22.20;57.20
49711;DHT22;35602;44.534;18.696;2023-04-24T10:04:55;22.20;57.10
49711;DHT22;35602;44.534;18.696;2023-04-24T10:10:00;22.20;57.10
49711;DHT22;35602;44.534;18.696;2023-04-24T10:15:01;22.20;57.20
49711;DHT22;35602;44.534;18.696;2023-04-24T10:20:03;22.20;57.20
49711;DHT22;35602;44.534;18.696;2023-04-24T10:25:04;22.20;57.20
49711;DHT22;35602;44.534;18.696;2023-04-24T10:30:06;22.20;57.10
49711;DHT22;35602;44.534;18.696;2023-04-24T10:35:07;22.20;57.30
49711;DHT22;35602;44.534;18.696;2023-04-24T10:40:09;22.20;57.20
49711;DHT22;35602;44.534;18.696;2023-04-24T10:45:16;22.20;57.20
49711;DHT22;35602;44.534;18.696;2023-04-24T10:50:18;22.20;57.10
49711;DHT22;35602;44.534;18.696;2023-04-24T11:00:38;22.10;57.10
49711;DHT22;35602;44.534;18.696;2023-04-24T11:05:49;22.10;57.00
49711;DHT22;35602;44.534;18.696;2023-04-24T11:11:07;22.10;57.10
49711;DHT22;35602;44.534;18.696;2023-04-24T11:16:20;22.10;57.00
49711;DHT22;35602;44.534;18.696;2023-04-24T11:21:24;22.10;57.00
49711;DHT22;35602;44.534;18.696;2023-04-24T11:26:26;22.10;57.00
49711;DHT22;35602;44.534;18.696;2023-04-24T11:31:40;22.10;57.00
49711;DHT22;35602;44.534;18.696;2023-04-24T11:36:43;22.10;56.90
49711;DHT22;35602;44.534;18.696;2023-04-24T11:41:45;22.00;56.90
49711;DHT22;35602;44.534;18.696;2023-04-24T11:46:46;22.00;56.80
49711;DHT22;35602;44.534;18.696;2023-04-24T11:51:47;22.00;57.10
49711;DHT22;35602;44.534;18.696;2023-04-24T11:56:48;22.00;56.80
49711;DHT22;35602;44.534;18.696;2023-04-24T12:01:49;22.00;56.80
49711;DHT22;35602;44.534;18.696;2023-04-24T12:07:02;22.00;56.80
49711;DHT22;35602;44.534;18.696;2023-04-24T12:12:04;22.00;56.80
49711;DHT22;35602;44.534;18.696;2023-04-24T12:17:06;22.00;56.80
49711;DHT22;35602;44.534;18.696;2023-04-24T12:22:07;22.00;56.80
49711;DHT22;35602;44.534;18.696;2023-04-24T12:27:17;22.00;56.90
49711;DHT22;35602;44.534;18.696;2023-04-24T12:32:18;22.10;57.50
49711;DHT22;35602;44.534;18.696;2023-04-24T12:37:19;22.10;58.00
49711;DHT22;35602;44.534;18.696;2023-04-24T12:42:25;22.20;58.20
49711;DHT22;35602;44.534;18.696;2023-04-24T12:47:27;22.20;58.40
49711;DHT22;35602;44.534;18.696;2023-04-24T12:52:28;22.20;58.50
49711;DHT22;35602;44.534;18.696;2023-04-24T12:57:29;22.20;58.60
49711;DHT22;35602;44.534;18.696;2023-04-24T13:02:30;22.20;58.70
49711;DHT22;35602;44.534;18.696;2023-04-24T13:07:31;22.30;58.90
49711;DHT22;35602;44.534;18.696;2023-04-24T13:12:32;22.30;59.00
49711;DHT22;35602;44.534;18.696;2023-04-24T13:17:33;22.30;59.10
49711;DHT22;35602;44.534;18.696;2023-04-24T13:22:33;22.30;59.30
49711;DHT22;35602;44.534;18.696;2023-04-24T13:27:34;22.30;59.30
49711;DHT22;35602;44.534;18.696;2023-04-24T13:32:35;22.40;59.40
49711;DHT22;35602;44.534;18.696;2023-04-24T13:37:35;22.30;59.00
49711;DHT22;35602;44.534;18.696;2023-04-24T13:42:36;22.30;59.20
49711;DHT22;35602;44.534;18.696;2023-04-24T13:47:37;22.30;59.30
49711;DHT22;35602;44.534;18.696;2023-04-24T13:52:37;22.20;59.30
49711;DHT22;35602;44.534;18.696;2023-04-24T13:57:38;22.20;59.40
49711;DHT22;35602;44.534;18.696;2023-04-24T14:02:38;22.20;59.40
49711;DHT22;35602;44.534;18.696;2023-04-24T14:07:39;22.20;59.50
49711;DHT22;35602;44.534;18.696;2023-04-24T14:12:40;22.20;59.40
49711;DHT22;35602;44.534;18.696;2023-04-24T14:17:40;22.20;59.40
49711;DHT22;35602;44.534;18.696;2023-04-24T14:22:42;22.10;60.20
49711;DHT22;35602;44.534;18.696;2023-04-24T14:27:42;22.10;60.00
49711;DHT22;35602;44.534;18.696;2023-04-24T14:32:43;22.10;59.40
49711;DHT22;35602;44.534;18.696;2023-04-24T14:37:44;22.10;59.30
49711;DHT22;35602;44.534;18.696;2023-04-24T14:42:44;22.10;59.40
49711;DHT22;35602;44.534;18.696;2023-04-24T14:47:45;22.10;59.50
49711;DHT22;35602;44.534;18.696;2023-04-24T14:52:46;22.10;59.40
49711;DHT22;35602;44.534;18.696;2023-04-24T14:57:47;22.10;59.40
49711;DHT22;35602;44.534;18.696;2023-04-24T15:02:48;22.10;59.40
49711;DHT22;35602;44.534;18.696;2023-04-24T15:07:48;22.10;60.10
49711;DHT22;35602;44.534;18.696;2023-04-24T15:12:50;22.10;59.50
49711;DHT22;35602;44.534;18.696;2023-04-24T15:17:51;22.10;59.50
49711;DHT22;35602;44.534;18.696;2023-04-24T15:22:52;22.10;59.40
49711;DHT22;35602;44.534;18.696;2023-04-24T15:27:52;22.10;59.50
49711;DHT22;35602;44.534;18.696;2023-04-24T15:32:53;22.10;59.50
49711;DHT22;35602;44.534;18.696;2023-04-24T15:37:54;22.10;59.40
49711;DHT22;35602;44.534;18.696;2023-04-24T15:42:55;22.10;59.30
49711;DHT22;35602;44.534;18.696;2023-04-24T15:47:55;22.00;59.40
49711;DHT22;35602;44.534;18.696;2023-04-24T15:52:56;22.00;59.30
49711;DHT22;35602;44.534;18.696;2023-04-24T15:57:57;22.00;59.30
49711;DHT22;35602;44.534;18.696;2023-04-24T16:02:59;22.00;59.30
49711;DHT22;35602;44.534;18.696;2023-04-24T16:07:59;22.10;59.40
49711;DHT22;35602;44.534;18.696;2023-04-24T16:13:00;22.00;59.40
49711;DHT22;35602;44.534;18.696;2023-04-24T16:18:02;22.00;59.40
49711;DHT22;35602;44.534;18.696;2023-04-24T16:23:03;22.00;59.40
49711;DHT22;35602;44.534;18.696;2023-04-24T16:28:04;22.00;59.30
49711;DHT22;35602;44.534;18.696;2023-04-24T16:33:04;22.00;59.30
49711;DHT22;35602;44.534;18.696;2023-04-24T16:38:06;22.00;59.20
49711;DHT22;35602;44.534;18.696;2023-04-24T16:43:07;22.00;59.20
49711;DHT22;35602;44.534;18.696;2023-04-24T16:48:08;22.00;59.30
49711;DHT22;35602;44.534;18.696;2023-04-24T16:53:10;22.00;59.10
49711;DHT22;35602;44.534;18.696;2023-04-24T16:58:11;22.00;58.80
49711;DHT22;35602;44.534;18.696;2023-04-24T17:03:12;22.00;59.10
49711;DHT22;35602;44.534;18.696;2023-04-24T17:08:12;22.00;59.00
49711;DHT22;35602;44.534;18.696;2023-04-24T17:13:13;22.00;59.00
49711;DHT22;35602;44.534;18.696;2023-04-24T17:18:14;22.00;59.10
49711;DHT22;35602;44.534;18.696;2023-04-24T17:23:15;22.00;59.00
49711;DHT22;35602;44.534;18.696;2023-04-24T17:28:49;22.00;59.00
49711;DHT22;35602;44.534;18.696;2023-04-24T17:33:53;22.00;59.00
49711;DHT22;35602;44.534;18.696;2023-04-24T17:38:54;22.00;58.80
49711;DHT22;35602;44.534;18.696;2023-04-24T17:43:55;22.00;58.80
49711;DHT22;35602;44.534;18.696;2023-04-24T17:48:55;22.00;58.80
49711;DHT22;35602;44.534;18.696;2023-04-24T17:53:56;22.00;58.80
49711;DHT22;35602;44.534;18.696;2023-04-24T17:58:57;22.00;59.40
49711;DHT22;35602;44.534;18.696;2023-04-24T18:03:59;22.00;58.80
49711;DHT22;35602;44.534;18.696;2023-04-24T18:09:00;22.00;58.80
49711;DHT22;35602;44.534;18.696;2023-04-24T18:14:00;22.00;58.80
49711;DHT22;35602;44.534;18.696;2023-04-24T18:19:04;22.10;58.90
49711;DHT22;35602;44.534;18.696;2023-04-24T18:24:05;22.00;58.90
49711;DHT22;35602;44.534;18.696;2023-04-24T18:29:05;22.10;58.80
49711;DHT22;35602;44.534;18.696;2023-04-24T18:34:06;22.00;58.90
49711;DHT22;35602;44.534;18.696;2023-04-24T18:39:07;22.00;58.80
49711;DHT22;35602;44.534;18.696;2023-04-24T18:44:07;22.00;58.80
49711;DHT22;35602;44.534;18.696;2023-04-24T18:49:10;22.00;58.80
49711;DHT22;35602;44.534;18.696;2023-04-24T18:54:11;22.00;58.80
49711;DHT22;35602;44.534;18.696;2023-04-24T18:59:12;22.00;58.80
49711;DHT22;35602;44.534;18.696;2023-04-24T19:04:12;22.00;58.80
49711;DHT22;35602;44.534;18.696;2023-04-24T19:09:13;22.00;58.80
49711;DHT22;35602;44.534;18.696;2023-04-24T19:14:15;22.00;58.90
49711;DHT22;35602;44.534;18.696;2023-04-24T19:19:16;22.00;58.80
49711;DHT22;35602;44.534;18.696;2023-04-24T19:24:16;22.00;58.90
49711;DHT22;35602;44.534;18.696;2023-04-24T19:29:20;22.00;58.90
49711;DHT22;35602;44.534;18.696;2023-04-24T19:34:21;22.00;58.90
49711;DHT22;35602;44.534;18.696;2023-04-24T19:39:21;22.00;58.90
49711;DHT22;35602;44.534;18.696;2023-04-24T19:44:22;22.00;58.90
49711;DHT22;35602;44.534;18.696;2023-04-24T19:49:24;22.00;59.00
49711;DHT22;35602;44.534;18.696;2023-04-24T19:54:25;22.00;59.00
49711;DHT22;35602;44.534;18.696;2023-04-24T19:59:25;22.00;59.10
49711;DHT22;35602;44.534;18.696;2023-04-24T20:04:26;22.00;59.00
49711;DHT22;35602;44.534;18.696;2023-04-24T20:09:27;22.00;59.10
49711;DHT22;35602;44.534;18.696;2023-04-24T20:14:27;22.00;59.00
49711;DHT22;35602;44.534;18.696;2023-04-24T20:19:28;22.00;59.00
49711;DHT22;35602;44.534;18.696;2023-04-24T20:24:29;22.00;59.00
49711;DHT22;35602;44.534;18.696;2023-04-24T20:29:30;22.00;59.10
49711;DHT22;35602;44.534;18.696;2023-04-24T20:34:31;22.00;59.00
49711;DHT22;35602;44.534;18.696;2023-04-24T20:39:33;22.00;59.00
49711;DHT22;35602;44.534;18.696;2023-04-24T20:44:33;22.00;59.00
49711;DHT22;35602;44.534;18.696;2023-04-24T20:49:35;22.00;59.10
49711;DHT22;35602;44.534;18.696;2023-04-24T20:54:36;22.00;59.10
49711;DHT22;35602;44.534;18.696;2023-04-24T20:59:37;22.00;59.40
49711;DHT22;35602;44.534;18.696;2023-04-24T21:04:37;22.00;59.10
49711;DHT22;35602;44.534;18.696;2023-04-24T21:09:39;22.00;59.10
49711;DHT22;35602;44.534;18.696;2023-04-24T21:14:39;22.00;59.10
49711;DHT22;35602;44.534;18.696;2023-04-24T21:19:41;22.00;59.20
49711;DHT22;35602;44.534;18.696;2023-04-24T21:24:42;22.00;59.20
49711;DHT22;35602;44.534;18.696;2023-04-24T21:29:43;22.00;59.20
49711;DHT22;35602;44.534;18.696;2023-04-24T21:34:46;22.00;59.20
49711;DHT22;35602;44.534;18.696;2023-04-24T21:39:46;22.00;59.20
49711;DHT22;35602;44.534;18.696;2023-04-24T21:44:47;22.00;59.20
49711;DHT22;35602;44.534;18.696;2023-04-24T21:49:48;22.00;59.20
49711;DHT22;35602;44.534;18.696;2023-04-24T21:54:48;22.00;59.20
49711;DHT22;35602;44.534;18.696;2023-04-24T21:59:49;22.00;59.20
49711;DHT22;35602;44.534;18.696;2023-04-24T22:04:50;22.00;59.20
49711;DHT22;35602;44.534;18.696;2023-04-24T22:09:52;22.00;59.20
49711;DHT22;35602;44.534;18.696;2023-04-24T22:14:54;22.00;59.20
49711;DHT22;35602;44.534;18.696;2023-04-24T22:19:55;22.00;59.20
49711;DHT22;35602;44.534;18.696;2023-04-24T22:24:56;22.00;59.30
49711;DHT22;35602;44.534;18.696;2023-04-24T22:29:57;22.00;59.30
49711;DHT22;35602;44.534;18.696;2023-04-24T22:34:57;22.00;59.30
49711;DHT22;35602;44.534;18.696;2023-04-24T22:39:58;22.00;59.30
49711;DHT22;35602;44.534;18.696;2023-04-24T22:45:00;22.00;59.40
49711;DHT22;35602;44.534;18.696;2023-04-24T22:50:01;22.00;59.30
49711;DHT22;35602;44.534;18.696;2023-04-24T22:55:02;22.00;59.30
49711;DHT22;35602;44.534;18.696;2023-04-24T23:00:04;22.00;59.30
49711;DHT22;35602;44.534;18.696;2023-04-24T23:05:10;22.00;59.30
49711;DHT22;35602;44.534;18.696;2023-04-24T23:10:11;22.00;59.40
49711;DHT22;35602;44.534;18.696;2023-04-24T23:15:11;22.00;59.40
49711;DHT22;35602;44.534;18.696;2023-04-24T23:20:12;22.00;59.30
49711;DHT22;35602;44.534;18.696;2023-04-24T23:25:13;22.00;59.30
49711;DHT22;35602;44.534;18.696;2023-04-24T23:30:14;22.00;59.50
49711;DHT22;35602;44.534;18.696;2023-04-24T23:35:14;22.00;59.40
49711;DHT22;35602;44.534;18.696;2023-04-24T23:40:15;22.00;59.40
49711;DHT22;35602;44.534;18.696;2023-04-24T23:45:16;22.00;59.40
49711;DHT22;35602;44.534;18.696;2023-04-24T23:50:16;22.00;59.40
49711;DHT22;35602;44.534;18.696;2023-04-24T23:55:17;22.00;59.40
